createdAt,value
2022-08-07T14:18:50.014Z,17.15
2022-08-07T14:22:03.462Z,15.82
2022-08-07T14:24:20.695Z,17.05
2022-08-07T14:26:57.013Z,16.50
2022-08-07T14:30:08.091Z,16.76
2022-08-07T14:32:19.377Z,17.78
2022-08-07T14:34:48.869Z,19.12
2022-08-07T14:43:58.119Z,21.54
2022-08-07T14:45:55.525Z,21.27
2022-08-07T14:48:27.366Z,18.95
2022-08-07T14:51:00.782Z,19.58
2022-08-07T14:54:05.513Z,18.64
2022-08-07T15:02:34.371Z,18.63
2022-08-07T15:04:57.319Z,21.09
2022-08-07T15:07:51.361Z,21.09
2022-08-07T15:10:19.803Z,21.14
2022-08-07T15:12:58.196Z,23.84
2022-08-07T15:15:33.617Z,24.37
2022-08-07T15:18:14.554Z,25.83
2022-08-07T15:20:58.831Z,25.39
2022-08-07T15:25:02.068Z,27.17
2022-08-07T15:26:32.053Z,26.61
2022-08-07T15:32:01.655Z,27.21
2022-08-07T15:34:34.971Z,28.03
2022-08-07T15:39:58.390Z,27.85
2022-08-07T15:45:57.239Z,28.71
2022-08-07T15:48:26.495Z,28.30
2022-08-07T15:51:09.163Z,29.63
2022-08-07T15:53:52.183Z,30.26
2022-08-07T15:56:29.825Z,30.36
2022-08-07T15:59:03.833Z,30.97
2022-08-07T16:01:38.455Z,30.63
2022-08-07T16:04:15.349Z,31.34
2022-08-07T16:06:49.181Z,30.83
2022-08-07T16:09:23.246Z,29.89
2022-08-07T16:12:28.559Z,31.16
2022-08-07T16:15:51.649Z,30.98
2022-08-07T16:18:49.869Z,31.22
2022-08-07T16:21:53.563Z,32.00
2022-08-07T16:24:33.656Z,32.35
2022-08-07T16:27:17.922Z,31.55
2022-08-07T16:30:11.303Z,32.31
2022-08-07T16:32:58.812Z,32.70
2022-08-07T16:35:51.499Z,33.47
2022-08-07T16:39:01.211Z,31.74
2022-08-07T16:42:04.091Z,32.56
2022-08-07T16:45:15.265Z,32.94
2022-08-07T16:48:16.426Z,33.21
2022-08-07T16:52:01.636Z,32.48
2022-08-07T16:54:32.564Z,32.22
2022-08-07T16:58:00.902Z,33.51
2022-08-07T17:00:17.134Z,33.32
2022-08-07T17:03:19.740Z,34.37
2022-08-07T17:06:30.118Z,34.02
2022-08-07T17:09:09.116Z,34.82
2022-08-07T17:12:05.017Z,35.07
2022-08-07T17:14:45.669Z,35.37
2022-08-07T17:17:46.256Z,34.87
2022-08-07T17:20:29.639Z,35.27
2022-08-07T17:23:02.674Z,35.99
2022-08-07T17:25:51.377Z,34.85
2022-08-07T17:28:32.193Z,35.52
2022-08-07T17:31:16.578Z,35.05
2022-08-07T17:34:15.515Z,36.47
2022-08-07T17:36:57.737Z,36.04
2022-08-07T17:39:53.141Z,36.90
2022-08-07T17:42:58.515Z,36.40
2022-08-07T17:45:30.957Z,37.27
2022-08-07T17:48:06.415Z,36.92
2022-08-07T17:50:49.309Z,37.19
2022-08-07T17:53:59.625Z,37.20
2022-08-07T17:56:29.711Z,36.34
2022-08-07T17:59:10.603Z,35.86
2022-08-07T18:01:48.616Z,37.15
2022-08-07T18:04:31.052Z,37.29
2022-08-07T18:07:28.520Z,37.92
2022-08-07T18:10:32.638Z,38.95
2022-08-07T18:13:30.673Z,37.84
2022-08-07T18:16:14.534Z,37.74
2022-08-07T18:21:03.994Z,38.18
2022-08-07T18:22:00.614Z,37.88
2022-08-07T18:24:37.734Z,38.55
2022-08-07T18:27:17.487Z,39.60
2022-08-07T18:30:07.970Z,38.66
2022-08-07T18:33:16.043Z,39.37
2022-08-07T18:35:58.947Z,39.86
2022-08-07T18:38:56.219Z,40.45
2022-08-07T18:41:45.858Z,40.64
2022-08-07T18:44:31.570Z,40.70
2022-08-07T18:47:10.251Z,41.88
2022-08-07T18:50:31.991Z,41.27
2022-08-07T18:53:04.624Z,40.83
2022-08-07T18:55:43.774Z,42.33
2022-08-07T18:58:37.608Z,41.47
2022-08-07T19:02:17.199Z,42.55
2022-08-07T19:04:13.669Z,43.29
2022-08-07T19:06:48.639Z,42.74
2022-08-07T19:09:55.577Z,43.86
2022-08-07T19:12:20.082Z,44.52
2022-08-07T19:14:59.039Z,45.52
2022-08-07T19:17:55.609Z,44.69
2022-08-07T19:21:09.827Z,45.64
2022-08-07T19:23:57.918Z,45.64
2022-08-07T19:26:29.364Z,46.03
2022-08-07T19:30:55.491Z,46.53
2022-08-07T19:32:10.678Z,47.52
2022-08-07T19:34:48.651Z,46.92
2022-08-07T19:37:19.783Z,46.78
2022-08-07T19:40:01.546Z,46.80
2022-08-07T19:42:31.216Z,47.42
2022-08-07T19:45:08.588Z,47.17
2022-08-07T19:47:42.183Z,48.50
2022-08-07T19:50:41.602Z,47.69
2022-08-07T19:53:00.892Z,47.23
2022-08-07T19:55:56.841Z,48.11
2022-08-07T19:58:28.082Z,49.02
2022-08-07T20:00:56.761Z,49.22
2022-08-07T20:03:35.181Z,49.69
2022-08-07T20:06:06.559Z,49.65
2022-08-07T20:08:48.842Z,50.12
2022-08-07T20:11:34.351Z,51.60
2022-08-07T20:14:13.530Z,51.68
2022-08-07T20:16:47.977Z,51.62
2022-08-07T20:19:28.793Z,52.69
2022-08-07T20:22:29.091Z,53.47
2022-08-07T20:25:06.993Z,52.92
2022-08-07T20:27:54.275Z,53.74
2022-08-07T20:30:38.388Z,54.22
2022-08-07T20:33:09.127Z,53.16
2022-08-07T20:36:03.625Z,54.55
2022-08-07T20:38:59.408Z,54.76
2022-08-07T20:41:28.399Z,55.41
2022-08-07T20:44:02.612Z,56.84
2022-08-07T20:46:34.613Z,54.73
2022-08-07T20:49:57.832Z,53.98
2022-08-07T20:51:58.907Z,54.95
2022-08-07T20:54:32.036Z,54.74
2022-08-07T20:57:06.803Z,54.44
2022-08-07T21:00:07.201Z,54.76
2022-08-07T21:02:28.045Z,54.75
2022-08-07T21:05:00.611Z,54.43
2022-08-07T21:07:34.672Z,53.41
2022-08-07T21:10:05.570Z,54.22
2022-08-07T21:12:45.475Z,55.38
2022-08-07T21:15:19.028Z,55.44
2022-08-07T21:18:03.031Z,56.30
2022-08-07T21:20:34.903Z,56.02
2022-08-07T21:23:07.692Z,55.66
2022-08-07T21:25:56.768Z,56.39
2022-08-07T21:28:48.052Z,56.82
2022-08-07T21:31:20.866Z,55.51
2022-08-07T21:34:14.085Z,56.13
2022-08-07T21:36:51.567Z,57.56
2022-08-07T21:39:46.551Z,57.71
2022-08-07T21:42:42.790Z,56.68
2022-08-07T21:46:07.513Z,58.83
2022-08-07T21:48:27.640Z,57.76
2022-08-07T21:51:07.674Z,58.00
2022-08-07T21:53:52.940Z,59.85
2022-08-07T21:56:39.865Z,58.49
2022-08-07T21:59:29.555Z,59.49
2022-08-07T22:02:10.685Z,61.11
2022-08-07T22:04:53.841Z,59.82
2022-08-07T22:07:31.848Z,60.43
2022-08-07T22:10:16.006Z,61.39
2022-08-07T22:12:45.509Z,60.54
2022-08-07T22:16:39.391Z,60.70
2022-08-07T22:18:12.258Z,62.48
2022-08-07T22:20:48.508Z,62.47
2022-08-07T22:23:21.639Z,63.00
2022-08-07T22:26:02.575Z,63.42
2022-08-07T22:28:41.452Z,64.03
2022-08-07T22:31:58.916Z,65.70
2022-08-07T22:34:29.147Z,63.05
2022-08-07T22:37:09.157Z,66.35
2022-08-07T22:39:53.165Z,65.83
2022-08-07T22:42:25.687Z,66.25
2022-08-07T22:45:01.966Z,65.66
2022-08-07T22:48:01.847Z,66.08
2022-08-07T22:50:59.447Z,66.81
2022-08-07T22:54:07.422Z,67.61
2022-08-07T22:56:37.719Z,67.68
2022-08-07T22:59:37.922Z,67.75
2022-08-07T23:02:24.654Z,70.29
2022-08-07T23:06:10.027Z,69.07
2022-08-07T23:08:24.317Z,70.97
2022-08-07T23:11:10.383Z,70.32
2022-08-07T23:14:14.950Z,70.97
2022-08-07T23:17:03.531Z,71.35
2022-08-07T23:19:51.281Z,70.86
2022-08-07T23:22:32.684Z,71.81
2022-08-07T23:25:16.295Z,70.77
2022-08-07T23:28:21.817Z,70.70
2022-08-07T23:31:06.802Z,71.72
2022-08-07T23:34:35.553Z,72.87
2022-08-07T23:37:19.282Z,73.15
2022-08-07T23:39:58.615Z,72.67
2022-08-07T23:42:43.252Z,72.39
2022-08-07T23:46:01.973Z,74.37
2022-08-07T23:48:25.085Z,74.08
2022-08-07T23:50:57.112Z,76.41
2022-08-07T23:53:49.735Z,75.50
2022-08-07T23:56:26.621Z,75.81
